sensor_id;sensor_type;location;lat;lon;timestamp;P1;durP1;ratioP1;P2;durP2;ratioP2
34984;SDS011;21190;58.750;17.004;2023-04-25T00:01:56;3.95;;;2.55;;
34984;SDS011;21190;58.750;17.004;2023-04-25T00:04:23;4.40;;;3.20;;
34984;SDS011;21190;58.750;17.004;2023-04-25T00:06:53;4.72;;;2.50;;
34984;SDS011;21190;58.750;17.004;2023-04-25T00:09:20;5.85;;;2.53;;
34984;SDS011;21190;58.750;17.004;2023-04-25T00:11:47;6.65;;;2.88;;
34984;SDS011;21190;58.750;17.004;2023-04-25T00:14:14;4.78;;;3.10;;
34984;SDS011;21190;58.750;17.004;2023-04-25T00:16:42;6.10;;;2.80;;
34984;SDS011;21190;58.750;17.004;2023-04-25T00:19:10;4.00;;;2.53;;
34984;SDS011;21190;58.750;17.004;2023-04-25T00:21:37;4.55;;;2.75;;
34984;SDS011;21190;58.750;17.004;2023-04-25T00:24:07;5.78;;;2.58;;
34984;SDS011;21190;58.750;17.004;2023-04-25T00:26:34;5.05;;;2.95;;
34984;SDS011;21190;58.750;17.004;2023-04-25T00:29:04;3.50;;;2.60;;
34984;SDS011;21190;58.750;17.004;2023-04-25T00:31:31;3.10;;;2.38;;
34984;SDS011;21190;58.750;17.004;2023-04-25T00:33:58;2.70;;;2.20;;
34984;SDS011;21190;58.750;17.004;2023-04-25T00:36:25;6.22;;;3.28;;
34984;SDS011;21190;58.750;17.004;2023-04-25T00:38:52;4.63;;;2.17;;
34984;SDS011;21190;58.750;17.004;2023-04-25T00:41:20;3.25;;;2.38;;
34984;SDS011;21190;58.750;17.004;2023-04-25T00:43:48;5.03;;;2.25;;
34984;SDS011;21190;58.750;17.004;2023-04-25T00:46:15;4.95;;;2.30;;
34984;SDS011;21190;58.750;17.004;2023-04-25T00:48:42;12.52;;;2.58;;
34984;SDS011;21190;58.750;17.004;2023-04-25T00:51:09;4.15;;;2.22;;
34984;SDS011;21190;58.750;17.004;2023-04-25T00:53:42;4.50;;;2.22;;
34984;SDS011;21190;58.750;17.004;2023-04-25T00:56:09;3.97;;;2.13;;
34984;SDS011;21190;58.750;17.004;2023-04-25T00:58:36;2.90;;;2.13;;
34984;SDS011;21190;58.750;17.004;2023-04-25T01:01:04;4.13;;;1.90;;
34984;SDS011;21190;58.750;17.004;2023-04-25T01:03:33;3.17;;;1.92;;
34984;SDS011;21190;58.750;17.004;2023-04-25T01:06:08;2.88;;;2.10;;
34984;SDS011;21190;58.750;17.004;2023-04-25T01:08:37;5.43;;;2.00;;
34984;SDS011;21190;58.750;17.004;2023-04-25T01:11:05;3.53;;;2.38;;
34984;SDS011;21190;58.750;17.004;2023-04-25T01:13:33;3.13;;;2.28;;
34984;SDS011;21190;58.750;17.004;2023-04-25T01:16:01;3.13;;;1.70;;
34984;SDS011;21190;58.750;17.004;2023-04-25T01:18:29;4.22;;;1.90;;
34984;SDS011;21190;58.750;17.004;2023-04-25T01:20:56;4.85;;;2.28;;
34984;SDS011;21190;58.750;17.004;2023-04-25T01:23:33;3.28;;;1.83;;
34984;SDS011;21190;58.750;17.004;2023-04-25T01:26:00;2.53;;;1.80;;
34984;SDS011;21190;58.750;17.004;2023-04-25T01:28:27;3.08;;;2.05;;
34984;SDS011;21190;58.750;17.004;2023-04-25T01:30:54;2.65;;;1.70;;
34984;SDS011;21190;58.750;17.004;2023-04-25T01:33:23;2.50;;;1.85;;
34984;SDS011;21190;58.750;17.004;2023-04-25T01:35:50;2.60;;;2.00;;
34984;SDS011;21190;58.750;17.004;2023-04-25T01:38:17;2.65;;;1.80;;
34984;SDS011;21190;58.750;17.004;2023-04-25T01:40:44;2.35;;;1.65;;
34984;SDS011;21190;58.750;17.004;2023-04-25T01:43:13;2.17;;;1.65;;
34984;SDS011;21190;58.750;17.004;2023-04-25T01:45:40;1.92;;;1.40;;
34984;SDS011;21190;58.750;17.004;2023-04-25T01:48:09;2.88;;;1.70;;
34984;SDS011;21190;58.750;17.004;2023-04-25T01:50:37;4.15;;;1.95;;
34984;SDS011;21190;58.750;17.004;2023-04-25T01:53:05;1.83;;;1.42;;
34984;SDS011;21190;58.750;17.004;2023-04-25T01:55:32;2.40;;;1.45;;
34984;SDS011;21190;58.750;17.004;2023-04-25T01:58:00;1.90;;;1.60;;
34984;SDS011;21190;58.750;17.004;2023-04-25T02:00:29;2.22;;;1.40;;
34984;SDS011;21190;58.750;17.004;2023-04-25T02:02:59;2.90;;;1.63;;
34984;SDS011;21190;58.750;17.004;2023-04-25T02:05:26;1.92;;;1.50;;
34984;SDS011;21190;58.750;17.004;2023-04-25T02:07:53;2.53;;;1.52;;
34984;SDS011;21190;58.750;17.004;2023-04-25T02:10:20;1.65;;;1.30;;
34984;SDS011;21190;58.750;17.004;2023-04-25T02:12:47;1.25;;;1.10;;
34984;SDS011;21190;58.750;17.004;2023-04-25T02:15:14;1.60;;;1.35;;
34984;SDS011;21190;58.750;17.004;2023-04-25T02:17:41;4.20;;;1.40;;
34984;SDS011;21190;58.750;17.004;2023-04-25T02:20:08;1.90;;;1.10;;
34984;SDS011;21190;58.750;17.004;2023-04-25T02:22:36;2.25;;;1.40;;
34984;SDS011;21190;58.750;17.004;2023-04-25T02:25:03;2.92;;;1.40;;
34984;SDS011;21190;58.750;17.004;2023-04-25T02:27:30;2.03;;;1.13;;
34984;SDS011;21190;58.750;17.004;2023-04-25T02:29:57;1.50;;;1.00;;
34984;SDS011;21190;58.750;17.004;2023-04-25T02:32:24;1.75;;;1.42;;
34984;SDS011;21190;58.750;17.004;2023-04-25T02:34:52;5.43;;;1.27;;
34984;SDS011;21190;58.750;17.004;2023-04-25T02:37:19;1.65;;;1.10;;
34984;SDS011;21190;58.750;17.004;2023-04-25T02:39:46;1.50;;;1.00;;
34984;SDS011;21190;58.750;17.004;2023-04-25T02:42:13;2.05;;;0.95;;
34984;SDS011;21190;58.750;17.004;2023-04-25T02:44:40;1.00;;;0.80;;
34984;SDS011;21190;58.750;17.004;2023-04-25T02:47:06;1.02;;;0.85;;
34984;SDS011;21190;58.750;17.004;2023-04-25T02:49:34;1.17;;;0.90;;
34984;SDS011;21190;58.750;17.004;2023-04-25T02:52:00;1.42;;;1.02;;
34984;SDS011;21190;58.750;17.004;2023-04-25T02:54:27;1.55;;;1.15;;
34984;SDS011;21190;58.750;17.004;2023-04-25T02:56:54;2.15;;;1.40;;
34984;SDS011;21190;58.750;17.004;2023-04-25T02:59:21;1.15;;;1.05;;
34984;SDS011;21190;58.750;17.004;2023-04-25T03:01:48;1.20;;;0.90;;
34984;SDS011;21190;58.750;17.004;2023-04-25T03:04:15;0.77;;;0.70;;
34984;SDS011;21190;58.750;17.004;2023-04-25T03:06:42;1.17;;;0.93;;
34984;SDS011;21190;58.750;17.004;2023-04-25T03:09:09;0.90;;;0.85;;
34984;SDS011;21190;58.750;17.004;2023-04-25T03:11:37;0.80;;;0.80;;
34984;SDS011;21190;58.750;17.004;2023-04-25T03:14:05;1.50;;;1.00;;
34984;SDS011;21190;58.750;17.004;2023-04-25T03:16:32;1.77;;;1.33;;
34984;SDS011;21190;58.750;17.004;2023-04-25T03:18:59;3.50;;;1.10;;
34984;SDS011;21190;58.750;17.004;2023-04-25T03:21:26;1.02;;;0.88;;
34984;SDS011;21190;58.750;17.004;2023-04-25T03:23:53;1.63;;;1.27;;
34984;SDS011;21190;58.750;17.004;2023-04-25T03:26:19;1.33;;;1.10;;
34984;SDS011;21190;58.750;17.004;2023-04-25T03:28:46;2.28;;;1.00;;
34984;SDS011;21190;58.750;17.004;2023-04-25T03:31:13;1.73;;;0.90;;
34984;SDS011;21190;58.750;17.004;2023-04-25T03:33:41;1.33;;;0.95;;
34984;SDS011;21190;58.750;17.004;2023-04-25T03:36:08;1.00;;;0.88;;
34984;SDS011;21190;58.750;17.004;2023-04-25T03:38:35;2.25;;;0.90;;
34984;SDS011;21190;58.750;17.004;2023-04-25T03:41:02;3.03;;;1.20;;
34984;SDS011;21190;58.750;17.004;2023-04-25T03:43:29;1.83;;;1.02;;
34984;SDS011;21190;58.750;17.004;2023-04-25T03:45:56;1.33;;;1.10;;
34984;SDS011;21190;58.750;17.004;2023-04-25T03:48:23;1.52;;;1.20;;
34984;SDS011;21190;58.750;17.004;2023-04-25T03:50:52;1.95;;;1.08;;
34984;SDS011;21190;58.750;17.004;2023-04-25T03:53:20;1.73;;;1.10;;
34984;SDS011;21190;58.750;17.004;2023-04-25T03:55:47;1.63;;;1.38;;
34984;SDS011;21190;58.750;17.004;2023-04-25T03:58:14;0.93;;;0.80;;
34984;SDS011;21190;58.750;17.004;2023-04-25T04:00:41;1.35;;;1.10;;
34984;SDS011;21190;58.750;17.004;2023-04-25T04:03:08;3.45;;;1.13;;
34984;SDS011;21190;58.750;17.004;2023-04-25T04:05:35;1.25;;;0.90;;
34984;SDS011;21190;58.750;17.004;2023-04-25T04:08:03;1.10;;;0.90;;
34984;SDS011;21190;58.750;17.004;2023-04-25T04:10:30;2.20;;;0.90;;
34984;SDS011;21190;58.750;17.004;2023-04-25T04:12:57;1.95;;;0.70;;
34984;SDS011;21190;58.750;17.004;2023-04-25T04:15:24;2.42;;;1.02;;
34984;SDS011;21190;58.750;17.004;2023-04-25T04:17:51;3.65;;;2.00;;
34984;SDS011;21190;58.750;17.004;2023-04-25T04:20:18;1.52;;;1.13;;
34984;SDS011;21190;58.750;17.004;2023-04-25T04:22:45;1.60;;;1.25;;
34984;SDS011;21190;58.750;17.004;2023-04-25T04:25:12;3.15;;;1.08;;
34984;SDS011;21190;58.750;17.004;2023-04-25T04:27:39;1.90;;;1.00;;
34984;SDS011;21190;58.750;17.004;2023-04-25T04:30:06;2.35;;;1.30;;
34984;SDS011;21190;58.750;17.004;2023-04-25T04:32:34;2.88;;;1.35;;
34984;SDS011;21190;58.750;17.004;2023-04-25T04:35:02;1.60;;;1.30;;
34984;SDS011;21190;58.750;17.004;2023-04-25T04:37:30;1.73;;;1.10;;
34984;SDS011;21190;58.750;17.004;2023-04-25T04:39:57;1.92;;;1.20;;
34984;SDS011;21190;58.750;17.004;2023-04-25T04:42:24;2.60;;;1.50;;
34984;SDS011;21190;58.750;17.004;2023-04-25T04:44:51;2.88;;;1.50;;
34984;SDS011;21190;58.750;17.004;2023-04-25T04:47:18;2.72;;;1.30;;
34984;SDS011;21190;58.750;17.004;2023-04-25T04:49:46;2.10;;;1.42;;
34984;SDS011;21190;58.750;17.004;2023-04-25T04:52:13;1.88;;;1.35;;
34984;SDS011;21190;58.750;17.004;2023-04-25T04:54:40;2.95;;;1.30;;
34984;SDS011;21190;58.750;17.004;2023-04-25T04:57:07;3.97;;;1.60;;
34984;SDS011;21190;58.750;17.004;2023-04-25T04:59:33;2.53;;;1.70;;
34984;SDS011;21190;58.750;17.004;2023-04-25T05:02:01;3.03;;;2.13;;
34984;SDS011;21190;58.750;17.004;2023-04-25T05:04:28;3.78;;;2.00;;
34984;SDS011;21190;58.750;17.004;2023-04-25T05:06:55;3.10;;;2.00;;
34984;SDS011;21190;58.750;17.004;2023-04-25T05:09:22;4.38;;;2.13;;
34984;SDS011;21190;58.750;17.004;2023-04-25T05:11:51;4.90;;;1.83;;
34984;SDS011;21190;58.750;17.004;2023-04-25T05:14:18;7.57;;;3.13;;
34984;SDS011;21190;58.750;17.004;2023-04-25T05:16:45;3.30;;;2.20;;
34984;SDS011;21190;58.750;17.004;2023-04-25T05:19:12;4.65;;;2.58;;
34984;SDS011;21190;58.750;17.004;2023-04-25T05:21:40;3.60;;;1.70;;
34984;SDS011;21190;58.750;17.004;2023-04-25T05:24:07;4.72;;;2.15;;
34984;SDS011;21190;58.750;17.004;2023-04-25T05:26:34;3.38;;;2.08;;
34984;SDS011;21190;58.750;17.004;2023-04-25T05:29:01;4.72;;;1.92;;
34984;SDS011;21190;58.750;17.004;2023-04-25T05:31:27;2.72;;;1.50;;
34984;SDS011;21190;58.750;17.004;2023-04-25T05:33:54;3.20;;;1.85;;
34984;SDS011;21190;58.750;17.004;2023-04-25T05:36:21;4.43;;;2.30;;
34984;SDS011;21190;58.750;17.004;2023-04-25T05:38:48;4.90;;;2.25;;
34984;SDS011;21190;58.750;17.004;2023-04-25T05:41:15;4.60;;;2.10;;
34984;SDS011;21190;58.750;17.004;2023-04-25T05:43:42;3.03;;;2.20;;
34984;SDS011;21190;58.750;17.004;2023-04-25T05:46:13;4.10;;;2.00;;
34984;SDS011;21190;58.750;17.004;2023-04-25T05:48:40;5.30;;;2.03;;
34984;SDS011;21190;58.750;17.004;2023-04-25T05:51:07;3.22;;;2.20;;
34984;SDS011;21190;58.750;17.004;2023-04-25T05:53:35;2.92;;;1.70;;
34984;SDS011;21190;58.750;17.004;2023-04-25T05:56:02;4.75;;;2.20;;
34984;SDS011;21190;58.750;17.004;2023-04-25T05:58:29;2.63;;;1.45;;
34984;SDS011;21190;58.750;17.004;2023-04-25T06:00:56;3.63;;;2.00;;
34984;SDS011;21190;58.750;17.004;2023-04-25T06:03:23;3.25;;;1.80;;
34984;SDS011;21190;58.750;17.004;2023-04-25T06:05:50;3.42;;;1.75;;
34984;SDS011;21190;58.750;17.004;2023-04-25T06:08:17;3.25;;;1.42;;
34984;SDS011;21190;58.750;17.004;2023-04-25T06:10:44;4.53;;;1.90;;
34984;SDS011;21190;58.750;17.004;2023-04-25T06:13:11;4.50;;;2.03;;
34984;SDS011;21190;58.750;17.004;2023-04-25T06:15:38;4.72;;;2.25;;
34984;SDS011;21190;58.750;17.004;2023-04-25T06:18:05;4.53;;;2.15;;
34984;SDS011;21190;58.750;17.004;2023-04-25T06:20:31;5.57;;;2.25;;
34984;SDS011;21190;58.750;17.004;2023-04-25T06:22:58;6.00;;;2.30;;
34984;SDS011;21190;58.750;17.004;2023-04-25T06:25:25;4.03;;;2.10;;
34984;SDS011;21190;58.750;17.004;2023-04-25T06:27:52;5.28;;;2.30;;
34984;SDS011;21190;58.750;17.004;2023-04-25T06:30:19;4.80;;;2.10;;
34984;SDS011;21190;58.750;17.004;2023-04-25T06:32:49;4.75;;;2.22;;
34984;SDS011;21190;58.750;17.004;2023-04-25T06:35:16;7.60;;;2.47;;
34984;SDS011;21190;58.750;17.004;2023-04-25T06:37:43;6.15;;;2.42;;
34984;SDS011;21190;58.750;17.004;2023-04-25T06:40:10;5.45;;;2.72;;
34984;SDS011;21190;58.750;17.004;2023-04-25T06:42:37;10.18;;;5.15;;
34984;SDS011;21190;58.750;17.004;2023-04-25T06:45:04;5.75;;;2.42;;
34984;SDS011;21190;58.750;17.004;2023-04-25T06:47:31;7.70;;;2.67;;
34984;SDS011;21190;58.750;17.004;2023-04-25T06:49:58;4.57;;;2.10;;
34984;SDS011;21190;58.750;17.004;2023-04-25T06:52:25;3.40;;;2.28;;
34984;SDS011;21190;58.750;17.004;2023-04-25T06:54:52;4.25;;;1.90;;
34984;SDS011;21190;58.750;17.004;2023-04-25T06:57:19;4.50;;;2.45;;
34984;SDS011;21190;58.750;17.004;2023-04-25T06:59:46;4.38;;;2.58;;
34984;SDS011;21190;58.750;17.004;2023-04-25T07:02:13;2.88;;;1.88;;
34984;SDS011;21190;58.750;17.004;2023-04-25T07:04:40;5.22;;;2.70;;
34984;SDS011;21190;58.750;17.004;2023-04-25T07:07:07;6.18;;;2.35;;
34984;SDS011;21190;58.750;17.004;2023-04-25T07:09:34;3.47;;;1.88;;
34984;SDS011;21190;58.750;17.004;2023-04-25T07:12:00;5.88;;;2.60;;
34984;SDS011;21190;58.750;17.004;2023-04-25T07:14:27;3.80;;;2.33;;
34984;SDS011;21190;58.750;17.004;2023-04-25T07:16:54;5.90;;;2.08;;
34984;SDS011;21190;58.750;17.004;2023-04-25T07:19:23;7.75;;;2.13;;
34984;SDS011;21190;58.750;17.004;2023-04-25T07:21:52;3.35;;;2.28;;
34984;SDS011;21190;58.750;17.004;2023-04-25T07:24:19;6.57;;;2.78;;
34984;SDS011;21190;58.750;17.004;2023-04-25T07:26:46;7.18;;;3.20;;
34984;SDS011;21190;58.750;17.004;2023-04-25T07:29:13;8.98;;;4.15;;
34984;SDS011;21190;58.750;17.004;2023-04-25T07:31:40;7.90;;;4.13;;
34984;SDS011;21190;58.750;17.004;2023-04-25T07:34:07;9.70;;;4.00;;
34984;SDS011;21190;58.750;17.004;2023-04-25T07:36:34;10.65;;;4.68;;
34984;SDS011;21190;58.750;17.004;2023-04-25T07:39:01;11.27;;;5.32;;
34984;SDS011;21190;58.750;17.004;2023-04-25T07:41:28;9.93;;;4.65;;
34984;SDS011;21190;58.750;17.004;2023-04-25T07:43:55;8.52;;;4.55;;
34984;SDS011;21190;58.750;17.004;2023-04-25T07:46:22;13.35;;;4.32;;
34984;SDS011;21190;58.750;17.004;2023-04-25T07:48:50;8.55;;;4.40;;
34984;SDS011;21190;58.750;17.004;2023-04-25T07:51:17;9.55;;;4.57;;
34984;SDS011;21190;58.750;17.004;2023-04-25T07:53:46;8.77;;;4.50;;
34984;SDS011;21190;58.750;17.004;2023-04-25T07:56:15;9.88;;;5.00;;
34984;SDS011;21190;58.750;17.004;2023-04-25T07:58:42;7.97;;;4.85;;
34984;SDS011;21190;58.750;17.004;2023-04-25T08:01:09;12.63;;;5.82;;
34984;SDS011;21190;58.750;17.004;2023-04-25T08:03:36;8.75;;;4.78;;
34984;SDS011;21190;58.750;17.004;2023-04-25T08:06:03;12.55;;;5.63;;
34984;SDS011;21190;58.750;17.004;2023-04-25T08:08:33;8.25;;;5.35;;
34984;SDS011;21190;58.750;17.004;2023-04-25T08:11:00;7.95;;;4.75;;
34984;SDS011;21190;58.750;17.004;2023-04-25T08:13:27;6.65;;;4.10;;
34984;SDS011;21190;58.750;17.004;2023-04-25T08:15:54;8.93;;;4.30;;
34984;SDS011;21190;58.750;17.004;2023-04-25T08:18:21;7.88;;;4.05;;
34984;SDS011;21190;58.750;17.004;2023-04-25T08:20:48;8.80;;;4.55;;
34984;SDS011;21190;58.750;17.004;2023-04-25T08:23:15;7.47;;;3.78;;
34984;SDS011;21190;58.750;17.004;2023-04-25T08:25:42;7.40;;;4.55;;
34984;SDS011;21190;58.750;17.004;2023-04-25T08:28:08;7.40;;;4.60;;
34984;SDS011;21190;58.750;17.004;2023-04-25T08:30:36;8.57;;;4.88;;
34984;SDS011;21190;58.750;17.004;2023-04-25T08:33:03;10.75;;;5.13;;
34984;SDS011;21190;58.750;17.004;2023-04-25T08:35:30;10.90;;;5.75;;
34984;SDS011;21190;58.750;17.004;2023-04-25T08:37:57;7.38;;;4.70;;
34984;SDS011;21190;58.750;17.004;2023-04-25T08:40:24;10.68;;;4.88;;
34984;SDS011;21190;58.750;17.004;2023-04-25T08:42:59;9.25;;;4.40;;
34984;SDS011;21190;58.750;17.004;2023-04-25T08:45:29;9.52;;;4.93;;
34984;SDS011;21190;58.750;17.004;2023-04-25T08:47:58;13.13;;;6.28;;
34984;SDS011;21190;58.750;17.004;2023-04-25T08:50:27;10.77;;;5.38;;
34984;SDS011;21190;58.750;17.004;2023-04-25T08:52:54;10.10;;;5.07;;
34984;SDS011;21190;58.750;17.004;2023-04-25T08:55:27;9.48;;;5.25;;
34984;SDS011;21190;58.750;17.004;2023-04-25T08:57:55;12.95;;;6.75;;
34984;SDS011;21190;58.750;17.004;2023-04-25T09:00:23;10.75;;;5.72;;
34984;SDS011;21190;58.750;17.004;2023-04-25T09:02:50;9.93;;;5.75;;
34984;SDS011;21190;58.750;17.004;2023-04-25T09:05:17;11.82;;;6.38;;
34984;SDS011;21190;58.750;17.004;2023-04-25T09:07:47;14.18;;;6.47;;
34984;SDS011;21190;58.750;17.004;2023-04-25T09:10:16;12.77;;;7.53;;
34984;SDS011;21190;58.750;17.004;2023-04-25T09:12:43;11.10;;;6.20;;
34984;SDS011;21190;58.750;17.004;2023-04-25T09:15:11;14.93;;;8.07;;
34984;SDS011;21190;58.750;17.004;2023-04-25T09:17:45;15.88;;;7.88;;
34984;SDS011;21190;58.750;17.004;2023-04-25T09:20:21;20.05;;;9.40;;
34984;SDS011;21190;58.750;17.004;2023-04-25T09:22:48;15.88;;;9.00;;
34984;SDS011;21190;58.750;17.004;2023-04-25T09:25:15;16.20;;;8.90;;
34984;SDS011;21190;58.750;17.004;2023-04-25T09:27:52;16.17;;;8.80;;
34984;SDS011;21190;58.750;17.004;2023-04-25T09:30:28;14.20;;;8.05;;
34984;SDS011;21190;58.750;17.004;2023-04-25T09:32:57;16.58;;;10.07;;
34984;SDS011;21190;58.750;17.004;2023-04-25T09:35:32;18.02;;;9.90;;
34984;SDS011;21190;58.750;17.004;2023-04-25T09:38:12;21.88;;;11.02;;
34984;SDS011;21190;58.750;17.004;2023-04-25T09:40:44;21.63;;;10.02;;
34984;SDS011;21190;58.750;17.004;2023-04-25T09:43:19;16.90;;;9.85;;
34984;SDS011;21190;58.750;17.004;2023-04-25T09:45:47;20.15;;;10.48;;
34984;SDS011;21190;58.750;17.004;2023-04-25T09:48:19;16.38;;;8.30;;
34984;SDS011;21190;58.750;17.004;2023-04-25T09:51:06;16.88;;;8.75;;
34984;SDS011;21190;58.750;17.004;2023-04-25T09:53:34;16.48;;;8.48;;
34984;SDS011;21190;58.750;17.004;2023-04-25T09:56:04;23.90;;;9.80;;
34984;SDS011;21190;58.750;17.004;2023-04-25T09:58:36;24.92;;;11.27;;
34984;SDS011;21190;58.750;17.004;2023-04-25T10:01:05;25.05;;;11.60;;
34984;SDS011;21190;58.750;17.004;2023-04-25T10:03:37;23.60;;;11.90;;
34984;SDS011;21190;58.750;17.004;2023-04-25T10:06:14;19.90;;;11.35;;
34984;SDS011;21190;58.750;17.004;2023-04-25T10:08:45;18.08;;;10.05;;
34984;SDS011;21190;58.750;17.004;2023-04-25T10:11:17;20.60;;;10.15;;
34984;SDS011;21190;58.750;17.004;2023-04-25T10:13:44;17.50;;;9.73;;
34984;SDS011;21190;58.750;17.004;2023-04-25T10:16:14;21.73;;;11.98;;
34984;SDS011;21190;58.750;17.004;2023-04-25T10:18:42;24.00;;;12.45;;
34984;SDS011;21190;58.750;17.004;2023-04-25T10:21:09;21.92;;;11.80;;
34984;SDS011;21190;58.750;17.004;2023-04-25T10:23:38;18.15;;;9.48;;
34984;SDS011;21190;58.750;17.004;2023-04-25T10:26:05;19.90;;;9.93;;
34984;SDS011;21190;58.750;17.004;2023-04-25T10:28:58;24.65;;;12.80;;
34984;SDS011;21190;58.750;17.004;2023-04-25T10:31:27;32.58;;;12.90;;
34984;SDS011;21190;58.750;17.004;2023-04-25T10:33:57;28.98;;;12.25;;
34984;SDS011;21190;58.750;17.004;2023-04-25T10:36:25;25.52;;;13.32;;
34984;SDS011;21190;58.750;17.004;2023-04-25T10:38:53;20.45;;;11.32;;
34984;SDS011;21190;58.750;17.004;2023-04-25T10:41:20;22.13;;;11.43;;
34984;SDS011;21190;58.750;17.004;2023-04-25T10:43:49;19.17;;;10.05;;
34984;SDS011;21190;58.750;17.004;2023-04-25T10:48:55;17.40;;;9.45;;
34984;SDS011;21190;58.750;17.004;2023-04-25T10:51:34;16.10;;;7.97;;
34984;SDS011;21190;58.750;17.004;2023-04-25T10:54:20;12.02;;;6.85;;
34984;SDS011;21190;58.750;17.004;2023-04-25T10:56:48;13.93;;;7.10;;
34984;SDS011;21190;58.750;17.004;2023-04-25T10:59:17;10.20;;;6.70;;
34984;SDS011;21190;58.750;17.004;2023-04-25T11:01:46;11.23;;;7.15;;
34984;SDS011;21190;58.750;17.004;2023-04-25T11:04:31;12.35;;;6.25;;
34984;SDS011;21190;58.750;17.004;2023-04-25T11:12:16;9.95;;;4.85;;
34984;SDS011;21190;58.750;17.004;2023-04-25T11:14:43;7.10;;;4.68;;
34984;SDS011;21190;58.750;17.004;2023-04-25T11:17:10;6.07;;;4.50;;
34984;SDS011;21190;58.750;17.004;2023-04-25T11:19:38;8.02;;;4.65;;
34984;SDS011;21190;58.750;17.004;2023-04-25T11:22:05;6.50;;;4.70;;
34984;SDS011;21190;58.750;17.004;2023-04-25T11:24:33;16.95;;;5.32;;
34984;SDS011;21190;58.750;17.004;2023-04-25T11:27:02;11.45;;;4.70;;
34984;SDS011;21190;58.750;17.004;2023-04-25T11:29:31;7.78;;;3.95;;
34984;SDS011;21190;58.750;17.004;2023-04-25T11:31:59;7.65;;;3.97;;
34984;SDS011;21190;58.750;17.004;2023-04-25T11:34:28;4.55;;;3.05;;
34984;SDS011;21190;58.750;17.004;2023-04-25T11:36:59;6.20;;;3.67;;
34984;SDS011;21190;58.750;17.004;2023-04-25T11:39:28;8.70;;;5.25;;
34984;SDS011;21190;58.750;17.004;2023-04-25T11:41:56;7.18;;;4.25;;
34984;SDS011;21190;58.750;17.004;2023-04-25T11:44:23;9.57;;;5.20;;
34984;SDS011;21190;58.750;17.004;2023-04-25T11:46:50;9.50;;;5.00;;
34984;SDS011;21190;58.750;17.004;2023-04-25T11:49:17;6.80;;;4.32;;
34984;SDS011;21190;58.750;17.004;2023-04-25T11:51:45;10.02;;;4.88;;
34984;SDS011;21190;58.750;17.004;2023-04-25T11:54:14;9.30;;;6.07;;
34984;SDS011;21190;58.750;17.004;2023-04-25T11:56:42;11.80;;;6.80;;
34984;SDS011;21190;58.750;17.004;2023-04-25T11:59:10;14.13;;;5.80;;
34984;SDS011;21190;58.750;17.004;2023-04-25T12:01:39;4.90;;;3.60;;
34984;SDS011;21190;58.750;17.004;2023-04-25T12:04:18;5.90;;;4.07;;
34984;SDS011;21190;58.750;17.004;2023-04-25T12:06:53;5.63;;;4.00;;
34984;SDS011;21190;58.750;17.004;2023-04-25T12:09:27;8.25;;;4.13;;
34984;SDS011;21190;58.750;17.004;2023-04-25T12:11:59;11.38;;;5.22;;
34984;SDS011;21190;58.750;17.004;2023-04-25T12:14:30;8.40;;;5.90;;
34984;SDS011;21190;58.750;17.004;2023-04-25T12:16:59;8.50;;;5.40;;
34984;SDS011;21190;58.750;17.004;2023-04-25T12:19:34;7.45;;;3.95;;
34984;SDS011;21190;58.750;17.004;2023-04-25T12:22:02;6.88;;;3.22;;
34984;SDS011;21190;58.750;17.004;2023-04-25T12:24:44;6.10;;;3.95;;
34984;SDS011;21190;58.750;17.004;2023-04-25T12:27:13;7.35;;;3.72;;
34984;SDS011;21190;58.750;17.004;2023-04-25T12:29:52;9.52;;;4.20;;
34984;SDS011;21190;58.750;17.004;2023-04-25T12:32:20;13.10;;;6.40;;
34984;SDS011;21190;58.750;17.004;2023-04-25T12:34:47;10.15;;;4.97;;
34984;SDS011;21190;58.750;17.004;2023-04-25T12:37:14;5.43;;;2.85;;
34984;SDS011;21190;58.750;17.004;2023-04-25T12:39:41;7.60;;;2.38;;
34984;SDS011;21190;58.750;17.004;2023-04-25T12:42:08;4.18;;;2.53;;
34984;SDS011;21190;58.750;17.004;2023-04-25T12:44:38;8.45;;;2.95;;
34984;SDS011;21190;58.750;17.004;2023-04-25T12:47:06;5.90;;;3.15;;
34984;SDS011;21190;58.750;17.004;2023-04-25T12:49:33;9.75;;;4.22;;
34984;SDS011;21190;58.750;17.004;2023-04-25T12:52:01;11.52;;;5.82;;
34984;SDS011;21190;58.750;17.004;2023-04-25T12:54:28;12.00;;;6.22;;
34984;SDS011;21190;58.750;17.004;2023-04-25T12:56:55;12.85;;;6.75;;
34984;SDS011;21190;58.750;17.004;2023-04-25T12:59:22;13.20;;;7.72;;
34984;SDS011;21190;58.750;17.004;2023-04-25T13:01:49;22.08;;;7.32;;
34984;SDS011;21190;58.750;17.004;2023-04-25T13:04:16;11.10;;;6.40;;
34984;SDS011;21190;58.750;17.004;2023-04-25T13:06:44;14.68;;;7.05;;
34984;SDS011;21190;58.750;17.004;2023-04-25T13:09:11;13.85;;;6.47;;
34984;SDS011;21190;58.750;17.004;2023-04-25T13:11:38;13.40;;;6.57;;
34984;SDS011;21190;58.750;17.004;2023-04-25T13:14:06;9.85;;;5.25;;
34984;SDS011;21190;58.750;17.004;2023-04-25T13:16:34;10.98;;;5.63;;
34984;SDS011;21190;58.750;17.004;2023-04-25T13:19:01;13.68;;;6.47;;
34984;SDS011;21190;58.750;17.004;2023-04-25T13:21:29;15.20;;;6.35;;
34984;SDS011;21190;58.750;17.004;2023-04-25T13:23:58;17.15;;;6.93;;
34984;SDS011;21190;58.750;17.004;2023-04-25T13:26:25;13.45;;;6.80;;
34984;SDS011;21190;58.750;17.004;2023-04-25T13:28:52;18.77;;;7.78;;
34984;SDS011;21190;58.750;17.004;2023-04-25T13:31:19;19.08;;;8.10;;
34984;SDS011;21190;58.750;17.004;2023-04-25T13:33:47;20.00;;;7.45;;
34984;SDS011;21190;58.750;17.004;2023-04-25T13:36:15;15.55;;;6.72;;
34984;SDS011;21190;58.750;17.004;2023-04-25T13:38:42;15.30;;;7.30;;
34984;SDS011;21190;58.750;17.004;2023-04-25T13:41:11;14.25;;;7.65;;
34984;SDS011;21190;58.750;17.004;2023-04-25T13:43:44;23.23;;;8.52;;
34984;SDS011;21190;58.750;17.004;2023-04-25T13:46:14;22.90;;;9.00;;
34984;SDS011;21190;58.750;17.004;2023-04-25T13:49:01;19.00;;;9.20;;
34984;SDS011;21190;58.750;17.004;2023-04-25T13:51:38;19.90;;;10.43;;
34984;SDS011;21190;58.750;17.004;2023-04-25T13:54:05;24.23;;;10.45;;
34984;SDS011;21190;58.750;17.004;2023-04-25T13:56:32;19.27;;;9.50;;
34984;SDS011;21190;58.750;17.004;2023-04-25T13:58:59;22.77;;;11.10;;
34984;SDS011;21190;58.750;17.004;2023-04-25T14:01:26;22.58;;;11.30;;
34984;SDS011;21190;58.750;17.004;2023-04-25T14:03:54;23.80;;;11.60;;
34984;SDS011;21190;58.750;17.004;2023-04-25T14:06:21;27.55;;;11.70;;
34984;SDS011;21190;58.750;17.004;2023-04-25T14:08:50;27.58;;;11.30;;
34984;SDS011;21190;58.750;17.004;2023-04-25T14:11:17;27.23;;;12.30;;
34984;SDS011;21190;58.750;17.004;2023-04-25T14:13:47;23.88;;;12.02;;
34984;SDS011;21190;58.750;17.004;2023-04-25T14:16:16;24.45;;;12.25;;
34984;SDS011;21190;58.750;17.004;2023-04-25T14:18:43;23.55;;;12.02;;
34984;SDS011;21190;58.750;17.004;2023-04-25T14:21:10;25.13;;;11.68;;
34984;SDS011;21190;58.750;17.004;2023-04-25T14:23:37;24.60;;;10.10;;
34984;SDS011;21190;58.750;17.004;2023-04-25T14:26:04;21.08;;;10.88;;
34984;SDS011;21190;58.750;17.004;2023-04-25T14:28:31;24.90;;;10.43;;
34984;SDS011;21190;58.750;17.004;2023-04-25T14:30:58;23.45;;;12.32;;
34984;SDS011;21190;58.750;17.004;2023-04-25T14:33:26;25.20;;;12.55;;
34984;SDS011;21190;58.750;17.004;2023-04-25T14:35:53;23.83;;;12.55;;
34984;SDS011;21190;58.750;17.004;2023-04-25T14:38:20;26.67;;;14.20;;
34984;SDS011;21190;58.750;17.004;2023-04-25T14:40:49;23.45;;;12.55;;
34984;SDS011;21190;58.750;17.004;2023-04-25T14:43:16;28.50;;;12.80;;